Time;durP1;ratioP1;P1;durP2;ratioP2;P2;SDS_P1;SDS_P2;PMS_P1;PMS_P2;Temp;Humidity;BMP_temperature;BMP_pressure;BME280_temperature;BME280_humidity;BME280_pressure;Samples;Min_cycle;Max_cycle;Signal;HPM_P1;HPM_P2
2021/05/17 00:00:16;;;;;;;2.15;0.68;;;10.00;99.90;;;;;;5038442;28;20060;-82
2021/05/17 00:02:43;;;;;;;3.88;0.85;;;10.00;99.90;;;;;;5038510;28;20086;-81
2021/05/17 00:05:10;;;;;;;1.00;0.50;;;10.00;99.90;;;;;;5056148;28;20365;-83
2021/05/17 00:07:36;;;;;;;1.77;0.50;;;9.90;99.90;;;;;;5038143;28;20391;-83
2021/05/17 00:10:05;;;;;;;2.03;0.70;;;10.00;99.90;;;;;;5038343;28;20032;-82
2021/05/17 00:12:32;;;;;;;5.28;0.75;;;10.00;99.90;;;;;;5038540;28;20108;-82
2021/05/17 00:14:57;;;;;;;3.50;0.70;;;10.00;99.90;;;;;;5038223;28;20075;-82
2021/05/17 00:17:24;;;;;;;3.78;0.80;;;10.00;99.90;;;;;;5038132;28;20025;-82
2021/05/17 00:19:50;;;;;;;3.13;0.52;;;10.10;99.90;;;;;;5038453;28;20029;-82
2021/05/17 00:22:15;;;;;;;2.60;0.70;;;10.10;99.90;;;;;;5037892;28;20036;-82
2021/05/17 00:24:41;;;;;;;2.42;0.73;;;10.20;99.90;;;;;;5037914;28;20025;-82
2021/05/17 00:27:08;;;;;;;3.15;0.70;;;10.20;99.90;;;;;;5055754;28;20060;-83
2021/05/17 00:29:33;;;;;;;1.52;0.50;;;10.20;99.90;;;;;;5055999;28;20032;-82
2021/05/17 00:31:59;;;;;;;2.38;0.70;;;10.30;99.90;;;;;;5054919;28;20472;-83
2021/05/17 00:34:26;;;;;;;1.92;0.52;;;10.40;99.90;;;;;;5038021;28;20025;-82
2021/05/17 00:36:52;;;;;;;4.18;0.52;;;10.20;99.90;;;;;;5037801;28;20028;-82
2021/05/17 00:39:18;;;;;;;2.28;0.70;;;10.30;99.90;;;;;;5037528;28;20029;-82
2021/05/17 00:41:44;;;;;;;1.95;0.47;;;10.20;99.90;;;;;;5037537;28;20025;-82
2021/05/17 00:44:11;;;;;;;3.20;0.80;;;10.10;99.90;;;;;;5055350;28;20454;-83
2021/05/17 00:46:38;;;;;;;3.17;0.50;;;10.20;99.90;;;;;;5055318;28;20025;-83
2021/05/17 00:49:05;;;;;;;3.50;0.60;;;10.10;99.90;;;;;;5037142;28;20074;-83
2021/05/17 00:51:34;;;;;;;2.10;0.47;;;10.10;99.90;;;;;;5055536;28;20120;-82
2021/05/17 00:54:01;;;;;;;2.80;0.65;;;10.00;99.90;;;;;;5037248;28;20021;-82
2021/05/17 00:56:27;;;;;;;1.90;0.57;;;10.00;99.90;;;;;;5037162;28;20067;-81
2021/05/17 00:58:53;;;;;;;3.95;0.95;;;10.20;99.90;;;;;;5037173;28;20025;-82
2021/05/17 01:01:19;;;;;;;1.42;0.65;;;10.00;99.90;;;;;;5055330;28;20033;-83
2021/05/17 01:03:45;;;;;;;3.72;0.80;;;10.00;99.90;;;;;;5037193;28;20029;-82
2021/05/17 01:06:12;;;;;;;1.70;0.75;;;10.00;99.90;;;;;;5037181;28;20056;-82
2021/05/17 01:08:56;;;;;;;6.53;0.82;;;10.00;99.90;;;;;;5036871;28;20056;-82
2021/05/17 01:11:25;;;;;;;1.75;0.50;;;10.10;99.90;;;;;;5036994;28;20025;-82
2021/05/17 01:13:52;;;;;;;4.35;0.60;;;10.10;99.90;;;;;;5054775;28;20017;-82
2021/05/17 01:16:19;;;;;;;3.25;0.63;;;10.10;99.90;;;;;;5054958;28;20020;-81
2021/05/17 01:18:47;;;;;;;2.70;0.45;;;10.20;99.90;;;;;;5036722;28;20033;-82
2021/05/17 01:21:17;;;;;;;2.10;0.70;;;10.00;99.90;;;;;;5054668;28;20481;-81
2021/05/17 01:23:56;;;;;;;3.25;0.80;;;10.00;99.90;;;;;;5054542;28;20028;-82
2021/05/17 01:26:25;;;;;;;1.95;0.70;;;10.10;99.90;;;;;;5054518;28;20120;-82
2021/05/17 01:28:55;;;;;;;0.82;0.43;;;10.10;99.90;;;;;;5036635;28;20036;-82
2021/05/17 01:31:21;;;;;;;3.55;0.50;;;10.20;99.90;;;;;;5036587;28;20041;-82
2021/05/17 01:33:47;;;;;;;2.40;0.60;;;10.30;99.90;;;;;;5036461;28;20103;-82
2021/05/17 01:36:15;;;;;;;0.90;0.50;;;10.30;99.90;;;;;;5036452;28;20031;-82
2021/05/17 01:38:44;;;;;;;1.80;0.70;;;10.40;99.90;;;;;;5036403;28;20035;-82
2021/05/17 01:41:14;;;;;;;3.17;0.57;;;10.50;99.90;;;;;;5036389;28;20461;-82
2021/05/17 01:43:44;;;;;;;1.45;0.43;;;10.50;99.90;;;;;;5036490;28;20061;-81
2021/05/17 01:46:15;;;;;;;1.50;0.57;;;10.30;99.90;;;;;;5036208;28;20021;-82
2021/05/17 01:48:41;;;;;;;2.58;0.52;;;10.10;99.90;;;;;;5054334;28;20472;-82
2021/05/17 01:51:16;;;;;;;1.60;0.70;;;10.20;99.90;;;;;;5036016;28;20037;-82
2021/05/17 01:53:43;;;;;;;2.85;0.55;;;10.30;99.90;;;;;;5036138;28;20472;-82
2021/05/17 01:56:10;;;;;;;1.55;0.63;;;10.40;99.90;;;;;;5053970;28;20025;-82
2021/05/17 01:58:37;;;;;;;3.13;0.50;;;10.30;99.90;;;;;;5036107;28;20025;-83
2021/05/17 02:01:08;;;;;;;1.50;0.40;;;10.30;99.90;;;;;;5035955;28;20392;-82
2021/05/17 02:03:36;;;;;;;2.08;0.70;;;10.40;99.90;;;;;;5054196;28;20059;-84
2021/05/17 02:06:03;;;;;;;1.13;0.60;;;10.50;99.90;;;;;;5035863;28;20024;-83
2021/05/17 02:08:30;;;;;;;1.90;0.45;;;10.40;99.90;;;;;;5036121;28;20044;-82
2021/05/17 02:10:57;;;;;;;1.48;0.50;;;10.30;99.90;;;;;;5035833;28;20028;-82
2021/05/17 02:13:25;;;;;;;1.73;0.50;;;10.30;99.90;;;;;;5035863;28;20480;-83
2021/05/17 02:15:51;;;;;;;3.80;0.60;;;10.20;99.90;;;;;;5035761;28;20482;-82
2021/05/17 02:18:17;;;;;;;2.40;0.50;;;10.00;99.90;;;;;;5053578;28;20064;-80
2021/05/17 02:20:44;;;;;;;3.05;0.47;;;10.10;99.90;;;;;;5035652;28;20082;-80
2021/05/17 02:23:13;;;;;;;1.15;0.40;;;10.00;99.90;;;;;;5035557;28;20032;-82
2021/05/17 02:25:48;;;;;;;3.10;0.60;;;9.90;99.90;;;;;;5053441;28;20028;-82
2021/05/17 02:28:15;;;;;;;2.30;0.60;;;10.10;99.90;;;;;;5035532;28;20029;-81
2021/05/17 02:30:41;;;;;;;3.90;0.55;;;10.10;99.90;;;;;;5035452;28;20029;-83
2021/05/17 02:33:08;;;;;;;1.30;0.52;;;10.10;99.90;;;;;;5053632;28;20024;-82
2021/05/17 02:35:35;;;;;;;2.25;0.68;;;10.00;99.90;;;;;;5053618;28;20025;-82
2021/05/17 02:38:02;;;;;;;0.95;0.40;;;10.10;99.90;;;;;;5053326;28;20534;-81
2021/05/17 02:40:28;;;;;;;1.58;0.50;;;9.90;99.90;;;;;;5035384;28;20032;-81
2021/05/17 02:43:08;;;;;;;1.13;0.60;;;9.80;99.90;;;;;;5053188;28;20443;-82
2021/05/17 02:45:35;;;;;;;2.03;0.70;;;9.70;99.90;;;;;;5053213;28;20032;-80
2021/05/17 02:48:02;;;;;;;2.88;0.68;;;9.90;99.90;;;;;;5053076;28;20033;-82
2021/05/17 02:50:37;;;;;;;3.08;0.68;;;9.90;99.90;;;;;;5035048;28;20045;-82
2021/05/17 02:53:26;;;;;;;1.77;0.38;;;10.00;99.90;;;;;;5053400;28;20068;-81
2021/05/17 02:55:56;;;;;;;1.60;0.60;;;9.80;99.90;;;;;;5059886;28;20039;-82
2021/05/17 02:58:24;;;;;;;1.42;0.57;;;9.80;99.90;;;;;;5042080;28;20029;-81
2021/05/17 03:01:03;;;;;;;2.47;0.63;;;9.90;99.90;;;;;;5041860;28;20075;-81
2021/05/17 03:03:34;;;;;;;2.10;0.80;;;9.90;99.90;;;;;;5059712;28;20067;-80
2021/05/17 03:06:06;;;;;;;0.95;0.70;;;10.00;99.90;;;;;;5059692;28;20021;-81
2021/05/17 03:08:47;;;;;;;1.95;0.52;;;10.10;99.90;;;;;;5059574;28;20025;-81
2021/05/17 03:11:15;;;;;;;3.30;0.55;;;10.10;99.90;;;;;;5041734;28;20032;-81
2021/05/17 03:13:42;;;;;;;3.38;0.50;;;10.00;99.90;;;;;;5059649;28;20427;-81
2021/05/17 03:16:08;;;;;;;0.77;0.30;;;10.10;99.90;;;;;;5059571;28;20017;-81
2021/05/17 03:18:37;;;;;;;3.80;0.52;;;10.10;99.90;;;;;;5059561;28;20491;-81
2021/05/17 03:21:02;;;;;;;1.08;0.63;;;10.00;99.90;;;;;;5060098;28;20354;-81
2021/05/17 03:23:28;;;;;;;2.83;0.60;;;9.80;99.90;;;;;;5041601;28;20032;-81
2021/05/17 03:25:54;;;;;;;3.85;1.08;;;9.90;99.90;;;;;;5041541;28;20095;-81
2021/05/17 03:28:20;;;;;;;4.75;0.52;;;9.80;99.90;;;;;;5041511;28;20057;-82
2021/05/17 03:30:46;;;;;;;0.82;0.30;;;9.60;99.90;;;;;;5041456;28;20025;-80
2021/05/17 03:33:11;;;;;;;2.20;0.65;;;9.30;99.90;;;;;;5059458;28;20025;-81
2021/05/17 03:35:37;;;;;;;3.10;0.60;;;9.40;99.90;;;;;;5059780;28;20092;-81
2021/05/17 03:38:03;;;;;;;1.23;0.52;;;9.60;99.90;;;;;;5041468;28;20021;-81
2021/05/17 03:40:28;;;;;;;2.55;0.40;;;9.60;99.90;;;;;;5041402;28;20079;-80
2021/05/17 03:42:54;;;;;;;1.60;0.60;;;9.60;99.90;;;;;;5059366;28;20029;-81
2021/05/17 03:45:20;;;;;;;3.20;0.50;;;9.40;99.90;;;;;;5041501;28;20033;-82
2021/05/17 03:47:45;;;;;;;1.58;0.70;;;9.40;99.90;;;;;;5041633;28;20067;-80
2021/05/17 03:50:13;;;;;;;3.00;0.80;;;9.40;99.90;;;;;;5026711;28;20073;-82
2021/05/17 03:52:40;;;;;;;1.88;0.50;;;9.40;99.90;;;;;;5019669;28;20481;-81
2021/05/17 03:55:06;;;;;;;0.65;0.30;;;9.40;99.90;;;;;;5018262;28;20029;-81
2021/05/17 03:57:32;;;;;;;1.38;0.43;;;9.50;99.90;;;;;;5018212;28;20026;-79
2021/05/17 03:59:57;;;;;;;2.10;0.70;;;9.40;99.90;;;;;;5019527;28;20022;-82
2021/05/17 04:02:24;;;;;;;1.83;0.55;;;9.40;99.90;;;;;;5018472;28;20029;-80
2021/05/17 04:15:44;;;;;;;1.48;1.02;;;9.40;99.90;;;;;;5016772;28;20030;-80
2021/05/17 04:18:11;;;;;;;1.80;0.60;;;9.30;99.90;;;;;;5015110;28;20026;-80
2021/05/17 04:20:38;;;;;;;2.33;0.40;;;9.20;99.90;;;;;;5016295;28;20025;-81
2021/05/17 04:23:04;;;;;;;1.48;0.60;;;9.20;99.90;;;;;;5014936;28;20371;-80
2021/05/17 04:25:30;;;;;;;2.10;0.60;;;9.20;99.90;;;;;;5014870;28;20073;-80
2021/05/17 04:27:56;;;;;;;9.88;2.83;;;9.30;99.90;;;;;;5014758;28;20049;-79
2021/05/17 04:30:22;;;;;;;2.95;1.00;;;9.20;99.90;;;;;;5015988;28;20101;-80
2021/05/17 04:32:47;;;;;;;3.30;0.50;;;9.10;99.90;;;;;;5014983;28;20025;-81
2021/05/17 04:35:13;;;;;;;1.65;0.50;;;9.20;99.90;;;;;;5014651;28;20053;-81
2021/05/17 04:37:39;;;;;;;1.85;0.40;;;9.30;99.90;;;;;;5014663;28;20072;-80
2021/05/17 04:40:06;;;;;;;1.85;0.60;;;9.40;99.90;;;;;;5016038;28;20109;-80
2021/05/17 04:42:32;;;;;;;2.42;0.60;;;9.50;99.90;;;;;;5015814;28;20022;-80
2021/05/17 04:44:58;;;;;;;2.22;0.50;;;9.40;99.90;;;;;;5014715;28;20029;-80
2021/05/17 04:47:24;;;;;;;2.13;0.63;;;9.30;99.90;;;;;;5014237;28;20030;-80
2021/05/17 04:49:50;;;;;;;1.95;0.82;;;9.10;99.90;;;;;;5014233;28;20053;-79
2021/05/17 04:52:16;;;;;;;0.85;0.40;;;9.20;99.90;;;;;;5015595;28;20049;-79
2021/05/17 04:54:42;;;;;;;1.50;0.55;;;9.10;99.90;;;;;;5014491;28;20033;-80
2021/05/17 04:57:07;;;;;;;2.38;0.70;;;9.10;99.90;;;;;;5014225;28;20018;-80
2021/05/17 04:59:33;;;;;;;1.33;0.75;;;9.20;99.90;;;;;;5015512;28;20099;-80
2021/05/17 05:01:59;;;;;;;1.60;0.60;;;9.10;99.90;;;;;;5014154;28;20398;-80
2021/05/17 05:04:24;;;;;;;1.75;0.40;;;9.00;99.90;;;;;;5015236;28;20477;-79
2021/05/17 05:06:50;;;;;;;1.70;0.40;;;9.20;99.90;;;;;;5013921;28;20029;-80
2021/05/17 05:09:16;;;;;;;2.08;0.63;;;9.10;99.90;;;;;;5013849;28;20022;-80
2021/05/17 05:11:42;;;;;;;2.13;0.50;;;9.30;99.90;;;;;;5015417;28;20026;-80
2021/05/17 05:14:08;;;;;;;0.80;0.30;;;9.20;99.90;;;;;;5013762;28;20052;-79
2021/05/17 05:16:34;;;;;;;2.08;0.50;;;9.30;99.90;;;;;;5014625;28;20490;-79
2021/05/17 05:18:59;;;;;;;0.65;0.35;;;9.30;99.90;;;;;;5013677;28;20539;-80
2021/05/17 05:21:25;;;;;;;2.72;0.40;;;9.40;99.90;;;;;;5013645;28;20045;-80
2021/05/17 05:23:51;;;;;;;3.20;0.60;;;9.50;99.90;;;;;;5013628;28;20434;-80
2021/05/17 05:29:00;;;;;;;0.52;0.30;;;9.60;99.90;;;;;;5014746;28;20425;-80
2021/05/17 05:31:30;;;;;;;1.30;0.40;;;9.60;99.90;;;;;;5013518;28;20029;-80
2021/05/17 05:33:56;;;;;;;2.42;0.50;;;9.60;99.90;;;;;;5013415;28;20029;-81
2021/05/17 05:36:22;;;;;;;3.40;0.40;;;9.70;99.90;;;;;;5014529;28;20029;-80
2021/05/17 05:38:47;;;;;;;1.45;0.50;;;9.80;99.90;;;;;;5014817;28;20025;-79
2021/05/17 05:41:13;;;;;;;1.85;0.45;;;9.90;99.90;;;;;;5014616;28;20080;-80
2021/05/17 05:43:39;;;;;;;1.98;0.52;;;9.80;99.90;;;;;;5014866;28;20512;-80
2021/05/17 05:46:05;;;;;;;2.97;0.70;;;9.90;99.90;;;;;;5014553;28;20030;-80
2021/05/17 05:48:31;;;;;;;2.65;0.38;;;10.00;99.90;;;;;;5013157;28;20033;-79
2021/05/17 05:50:56;;;;;;;4.82;0.50;;;10.00;99.90;;;;;;5049392;28;20051;-80
2021/05/17 05:53:22;;;;;;;0.70;0.30;;;10.20;99.90;;;;;;5036116;28;20051;-81
2021/05/17 05:55:48;;;;;;;1.83;0.47;;;10.10;99.90;;;;;;5036111;28;20032;-81
2021/05/17 05:58:15;;;;;;;1.67;0.30;;;10.20;99.90;;;;;;5053959;28;20021;-79
2021/05/17 06:00:42;;;;;;;0.95;0.35;;;10.30;99.90;;;;;;5036026;28;20029;-81
2021/05/17 06:03:08;;;;;;;1.70;0.40;;;10.50;99.90;;;;;;5054926;28;20044;-81
2021/05/17 06:05:34;;;;;;;1.27;0.40;;;10.50;99.90;;;;;;5035965;28;20025;-81
2021/05/17 06:08:01;;;;;;;0.75;0.50;;;10.60;99.90;;;;;;5053685;28;20017;-81
2021/05/17 06:10:27;;;;;;;2.47;0.45;;;10.80;99.90;;;;;;5035868;28;20020;-79
2021/05/17 06:12:55;;;;;;;2.47;0.57;;;11.00;99.90;;;;;;5035808;28;20503;-81
2021/05/17 06:15:22;;;;;;;1.17;0.43;;;10.90;99.90;;;;;;5035776;28;20031;-81
2021/05/17 06:17:48;;;;;;;2.72;0.45;;;10.90;99.90;;;;;;5035744;28;20025;-80
2021/05/17 06:20:15;;;;;;;1.48;0.40;;;10.70;99.90;;;;;;5053583;28;20052;-82
2021/05/17 06:22:41;;;;;;;0.60;0.40;;;10.60;99.90;;;;;;5053654;28;20052;-81
2021/05/17 06:25:09;;;;;;;2.05;0.40;;;10.60;99.90;;;;;;5053511;28;20033;-80
2021/05/17 06:27:39;;;;;;;2.15;0.50;;;10.40;99.90;;;;;;5035471;28;20051;-81
2021/05/17 06:30:07;;;;;;;1.23;0.38;;;10.30;99.90;;;;;;5034891;28;20067;-80
2021/05/17 06:32:36;;;;;;;1.83;0.45;;;9.90;99.90;;;;;;5053013;28;20029;-81
2021/05/17 06:35:04;;;;;;;2.95;0.55;;;9.90;99.90;;;;;;5053691;28;20053;-81
2021/05/17 06:37:30;;;;;;;0.65;0.40;;;10.00;99.90;;;;;;5035504;28;20024;-80
2021/05/17 06:39:55;;;;;;;2.78;0.70;;;9.90;99.90;;;;;;5035425;28;20025;-80
2021/05/17 06:42:21;;;;;;;2.28;0.40;;;10.10;99.90;;;;;;5035457;28;20025;-80
2021/05/17 06:44:47;;;;;;;1.88;0.40;;;10.20;99.90;;;;;;5035412;28;20387;-80
2021/05/17 06:47:13;;;;;;;1.63;0.63;;;10.10;99.90;;;;;;5053179;28;20066;-79
2021/05/17 06:49:39;;;;;;;3.00;0.40;;;10.10;99.90;;;;;;5035029;28;20056;-80
2021/05/17 06:52:07;;;;;;;1.50;0.50;;;10.20;99.90;;;;;;5053192;28;20029;-81
2021/05/17 06:54:33;;;;;;;1.40;0.50;;;10.20;99.90;;;;;;5035276;28;20025;-80
2021/05/17 06:59:45;;;;;;;2.40;0.60;;;10.60;99.90;;;;;;5053492;28;20064;-80
2021/05/17 07:02:17;;;;;;;2.72;0.63;;;10.50;99.90;;;;;;5053154;28;20028;-81
2021/05/17 07:04:44;;;;;;;0.60;0.30;;;10.60;99.90;;;;;;5035178;28;20041;-80
2021/05/17 07:07:10;;;;;;;1.00;0.43;;;10.70;99.90;;;;;;5053051;28;20029;-80
2021/05/17 07:12:20;;;;;;;;;;;10.80;99.90;;;;;;5054037;28;20072;-80
2021/05/17 07:14:46;;;;;;;2.40;0.40;;;10.80;99.90;;;;;;5035086;28;19999;-81
2021/05/17 07:17:12;;;;;;;0.90;0.30;;;11.00;99.90;;;;;;5035069;28;20031;-80
2021/05/17 07:19:38;;;;;;;1.05;0.40;;;11.30;99.90;;;;;;5035104;28;20031;-80
2021/05/17 07:24:48;;;;;;;2.58;0.57;;;11.30;99.90;;;;;;5053468;28;20549;-80
2021/05/17 07:27:14;;;;;;;0.65;0.32;;;11.20;99.90;;;;;;5035027;28;20080;-81
2021/05/17 07:29:40;;;;;;;2.33;0.40;;;11.20;99.90;;;;;;5034834;28;20028;-80
2021/05/17 07:32:08;;;;;;;1.65;0.40;;;11.10;99.90;;;;;;5034942;28;20032;-80
2021/05/17 07:34:36;;;;;;;0.77;0.40;;;11.30;99.90;;;;;;5034956;28;20100;-80
2021/05/17 07:37:03;;;;;;;1.10;0.32;;;11.40;99.90;;;;;;5034885;28;20121;-81
2021/05/17 07:39:29;;;;;;;0.82;0.28;;;11.30;99.90;;;;;;5034782;28;20036;-79
2021/05/17 07:41:55;;;;;;;0.82;0.45;;;11.20;99.90;;;;;;5056616;28;20025;-80
2021/05/17 07:44:21;;;;;;;0.85;0.30;;;11.10;99.90;;;;;;5038556;28;20021;-80
2021/05/17 07:46:47;;;;;;;1.10;0.32;;;11.10;99.90;;;;;;5056414;28;20017;-78
2021/05/17 07:49:18;;;;;;;2.33;0.40;;;11.10;99.90;;;;;;5038314;28;20500;-80
2021/05/17 07:51:45;;;;;;;0.73;0.30;;;11.30;99.90;;;;;;5038481;28;20017;-80
2021/05/17 07:54:13;;;;;;;1.85;0.30;;;11.40;99.90;;;;;;5038354;28;20024;-80
2021/05/17 07:56:39;;;;;;;1.67;0.45;;;11.70;99.90;;;;;;5038410;28;20021;-80
2021/05/17 07:59:05;;;;;;;1.10;0.52;;;11.70;99.90;;;;;;5038313;28;20432;-79
2021/05/17 08:01:32;;;;;;;3.50;0.75;;;11.80;99.90;;;;;;5056164;28;20032;-80
2021/05/17 08:03:57;;;;;;;1.15;0.50;;;11.70;99.90;;;;;;5038194;28;20404;-79
2021/05/17 08:06:24;;;;;;;1.75;0.35;;;11.60;99.90;;;;;;5038195;28;20028;-78
2021/05/17 08:08:51;;;;;;;1.65;0.52;;;11.80;99.90;;;;;;5055939;28;20152;-79
2021/05/17 08:11:17;;;;;;;1.63;0.35;;;11.80;99.90;;;;;;5056204;28;20036;-79
2021/05/17 08:13:43;;;;;;;2.92;0.10;;;12.00;99.90;;;;;;5038005;28;20017;-79
2021/05/17 08:16:09;;;;;;;2.42;0.68;;;11.90;99.90;;;;;;5056161;28;20027;-79
2021/05/17 08:18:35;;;;;;;3.95;0.52;;;12.20;99.90;;;;;;5037962;28;20044;-79
2021/05/17 08:21:01;;;;;;;3.45;0.50;;;12.30;99.90;;;;;;5037879;28;20029;-80
2021/05/17 08:23:28;;;;;;;1.70;0.55;;;12.50;99.90;;;;;;5037845;28;20484;-80
2021/05/17 08:25:54;;;;;;;2.85;0.40;;;12.20;99.90;;;;;;5037733;28;20029;-80
2021/05/17 08:28:19;;;;;;;4.63;0.60;;;11.90;99.90;;;;;;5037634;28;20079;-79
2021/05/17 08:30:47;;;;;;;3.55;0.30;;;11.60;99.90;;;;;;5037781;28;20116;-79
2021/05/17 08:33:14;;;;;;;3.28;0.60;;;11.70;99.90;;;;;;5037694;28;20032;-80
2021/05/17 08:35:40;;;;;;;1.67;0.35;;;11.60;99.90;;;;;;5037715;28;20028;-80
2021/05/17 08:38:07;;;;;;;1.38;0.50;;;11.70;99.90;;;;;;5037580;28;20025;-80
2021/05/17 08:40:38;;;;;;;1.75;0.43;;;11.60;99.90;;;;;;5037601;28;20024;-79
2021/05/17 08:43:04;;;;;;;3.88;0.63;;;11.40;99.90;;;;;;5037500;28;20074;-80
2021/05/17 08:45:31;;;;;;;3.15;0.50;;;11.40;99.90;;;;;;5037437;28;20370;-78
2021/05/17 08:47:57;;;;;;;2.80;0.70;;;11.40;99.90;;;;;;5055149;28;20488;-80
2021/05/17 08:50:23;;;;;;;2.38;0.45;;;11.50;99.90;;;;;;5055082;28;20084;-80
2021/05/17 08:52:50;;;;;;;3.15;0.80;;;11.70;99.90;;;;;;5036628;28;20025;-80
2021/05/17 08:55:16;;;;;;;3.47;0.73;;;11.70;99.90;;;;;;5037246;28;20108;-80
2021/05/17 08:57:43;;;;;;;1.23;0.60;;;11.70;99.90;;;;;;5055107;28;20029;-81
2021/05/17 09:00:10;;;;;;;1.80;0.50;;;11.90;99.90;;;;;;5055055;28;20044;-80
2021/05/17 09:02:36;;;;;;;3.05;0.73;;;11.90;99.90;;;;;;5037063;28;20025;-81
2021/05/17 09:05:18;;;;;;;2.25;0.82;;;11.90;99.90;;;;;;5037049;28;20017;-81
2021/05/17 09:07:47;;;;;;;4.43;0.93;;;12.40;99.90;;;;;;5054903;28;20122;-79
2021/05/17 09:10:22;;;;;;;1.58;0.57;;;12.60;99.90;;;;;;5036999;28;20028;-81
2021/05/17 09:12:59;;;;;;;3.70;0.65;;;12.70;99.90;;;;;;5054827;28;20021;-80
2021/05/17 09:15:42;;;;;;;3.30;0.50;;;12.70;99.90;;;;;;5054852;28;20024;-81
2021/05/17 09:18:11;;;;;;;1.08;0.30;;;12.80;99.90;;;;;;5036862;28;20029;-81
2021/05/17 09:20:40;;;;;;;1.92;0.50;;;13.10;99.90;;;;;;5036783;28;20021;-81
2021/05/17 09:23:11;;;;;;;1.42;0.45;;;13.10;99.90;;;;;;5054669;28;20021;-80
2021/05/17 09:25:38;;;;;;;0.82;0.40;;;12.60;99.90;;;;;;5036697;28;20035;-82
2021/05/17 09:28:07;;;;;;;2.95;0.50;;;12.30;99.90;;;;;;5036579;28;20496;-82
2021/05/17 09:30:49;;;;;;;2.17;0.47;;;12.50;99.90;;;;;;5036616;28;20021;-81
2021/05/17 09:33:20;;;;;;;1.42;0.50;;;12.80;99.90;;;;;;5036657;28;20451;-82
2021/05/17 09:35:48;;;;;;;2.15;0.60;;;13.30;99.90;;;;;;5036516;28;20063;-82
2021/05/17 09:38:24;;;;;;;1.20;0.30;;;13.50;99.90;;;;;;5036551;28;20032;-82
2021/05/17 09:41:02;;;;;;;1.08;0.30;;;13.50;99.90;;;;;;5036610;28;20028;-82
2021/05/17 09:43:29;;;;;;;1.27;0.38;;;13.60;99.90;;;;;;5036421;28;20053;-82
2021/05/17 09:45:55;;;;;;;3.22;0.40;;;13.60;99.90;;;;;;5036517;28;20560;-82
2021/05/17 09:48:25;;;;;;;0.98;0.35;;;13.60;99.90;;;;;;5036485;28;20140;-82
2021/05/17 09:51:02;;;;;;;2.13;0.38;;;13.60;99.90;;;;;;5036244;28;20045;-81
2021/05/17 09:53:39;;;;;;;2.00;0.50;;;13.80;99.90;;;;;;5054145;28;20140;-82
2021/05/17 09:56:22;;;;;;;2.53;0.40;;;13.80;99.90;;;;;;5054126;28;20032;-80
2021/05/17 09:58:56;;;;;;;2.25;0.50;;;13.90;99.90;;;;;;5036301;28;20396;-82
2021/05/17 10:01:22;;;;;;;1.67;0.60;;;14.20;99.90;;;;;;5054024;28;20095;-82
2021/05/17 10:03:50;;;;;;;1.73;0.35;;;14.20;99.90;;;;;;5034980;28;20086;-80
2021/05/17 10:06:21;;;;;;;4.47;0.60;;;14.00;99.90;;;;;;5053823;28;20021;-81
2021/05/17 10:08:48;;;;;;;1.80;0.50;;;13.60;99.90;;;;;;5054022;28;20480;-81
2021/05/17 10:11:14;;;;;;;2.75;0.50;;;13.40;99.90;;;;;;5035837;28;20021;-81
2021/05/17 10:13:40;;;;;;;3.33;0.57;;;13.40;99.90;;;;;;5035858;28;20075;-83
2021/05/17 10:16:08;;;;;;;2.40;0.40;;;13.00;99.90;;;;;;5035735;28;20032;-81
2021/05/17 10:18:35;;;;;;;2.03;0.50;;;12.80;99.90;;;;;;5035742;28;20044;-81
2021/05/17 10:21:03;;;;;;;3.63;0.98;;;13.00;99.90;;;;;;5035788;28;20112;-80
2021/05/17 10:23:29;;;;;;;2.47;0.77;;;12.80;99.90;;;;;;5035765;28;20029;-82
2021/05/17 10:26:15;;;;;;;3.33;0.50;;;12.70;99.90;;;;;;5035626;28;20395;-81
2021/05/17 10:28:47;;;;;;;4.35;0.60;;;12.60;99.90;;;;;;5053695;28;20028;-82
2021/05/17 10:31:15;;;;;;;1.70;0.38;;;12.70;99.90;;;;;;5035597;28;20032;-81
2021/05/17 10:33:43;;;;;;;5.13;0.70;;;12.70;99.90;;;;;;5035492;28;20071;-82
2021/05/17 10:36:10;;;;;;;1.67;0.57;;;12.80;99.90;;;;;;5035489;28;20025;-82
2021/05/17 10:38:46;;;;;;;2.67;0.57;;;12.90;99.90;;;;;;5053377;28;20044;-83
2021/05/17 10:41:20;;;;;;;1.33;0.40;;;13.20;99.90;;;;;;5035594;28;20103;-82
2021/05/17 10:46:53;;;;;;;2.13;0.28;;;13.70;99.90;;;;;;5053202;28;20469;-80
2021/05/17 10:49:35;;;;;;;1.85;0.55;;;13.60;99.90;;;;;;5053242;28;20041;-81
2021/05/17 10:52:06;;;;;;;1.27;0.40;;;13.50;99.90;;;;;;5035280;28;20021;-81
2021/05/17 10:54:38;;;;;;;0.80;0.45;;;13.50;99.90;;;;;;5053120;28;20021;-81
2021/05/17 11:00:23;;;;;;;1.52;0.43;;;13.90;99.90;;;;;;5029824;28;20397;-81
2021/05/17 11:03:13;;;;;;;1.13;0.40;;;14.00;99.90;;;;;;5035422;28;20021;-80
2021/05/17 11:05:40;;;;;;;1.58;0.50;;;14.30;99.90;;;;;;5053087;28;20366;-81
2021/05/17 11:08:12;;;;;;;2.63;0.47;;;14.50;99.90;;;;;;5035159;28;20426;-81
2021/05/17 11:10:38;;;;;;;1.17;0.35;;;14.40;99.90;;;;;;5053105;28;20105;-80
2021/05/17 11:13:30;;;;;;;3.47;0.60;;;14.20;99.90;;;;;;5035150;28;20127;-80
2021/05/17 11:16:07;;;;;;;1.88;0.50;;;14.50;99.90;;;;;;5055220;28;20024;-79
2021/05/17 11:18:48;;;;;;;3.08;0.50;;;14.30;99.90;;;;;;5039139;28;20029;-79
2021/05/17 11:21:22;;;;;;;2.35;0.50;;;14.10;99.90;;;;;;5039146;28;20125;-81
2021/05/17 11:23:51;;;;;;;2.70;0.60;;;13.90;99.90;;;;;;5039086;28;20032;-80
2021/05/17 11:26:17;;;;;;;1.35;0.20;;;13.80;99.90;;;;;;5038925;28;20025;-81
2021/05/17 11:28:43;;;;;;;0.68;0.35;;;13.80;99.90;;;;;;5056754;28;20024;-81
2021/05/17 11:31:19;;;;;;;1.88;0.32;;;13.80;99.90;;;;;;5038960;28;20025;-82
2021/05/17 11:33:49;;;;;;;1.02;0.40;;;14.20;99.90;;;;;;5038898;28;20029;-80
2021/05/17 11:36:25;;;;;;;0.52;0.20;;;14.80;99.90;;;;;;5038820;28;20021;-82
2021/05/17 11:39:10;;;;;;;0.52;0.22;;;15.20;99.90;;;;;;5056776;28;20032;-81
2021/05/17 11:41:38;;;;;;;1.65;0.50;;;15.40;99.90;;;;;;5056598;28;20492;-80
2021/05/17 11:44:06;;;;;;;0.68;0.13;;;15.60;99.90;;;;;;5056686;28;20079;-80
2021/05/17 11:46:49;;;;;;;1.65;0.40;;;15.70;99.90;;;;;;5056836;28;20029;-82
2021/05/17 11:49:18;;;;;;;2.50;0.38;;;15.20;99.90;;;;;;5056580;28;20092;-80
2021/05/17 11:51:49;;;;;;;0.08;0.03;;;14.70;99.90;;;;;;5056669;28;20021;-81
2021/05/17 11:54:16;;;;;;;0.90;0.20;;;14.40;99.90;;;;;;5038432;28;20385;-81
2021/05/17 11:56:45;;;;;;;2.92;0.30;;;14.30;99.90;;;;;;5038471;28;20017;-81
2021/05/17 11:59:16;;;;;;;0.63;0.10;;;14.80;99.90;;;;;;5038393;28;20052;-80
2021/05/17 12:01:44;;;;;;;2.88;0.30;;;14.60;99.90;;;;;;5038476;28;20032;-82
2021/05/17 12:04:23;;;;;;;2.83;0.30;;;14.80;99.90;;;;;;5056067;28;20036;-81
2021/05/17 12:06:57;;;;;;;4.20;0.10;;;15.10;99.90;;;;;;5056559;28;20550;-80
2021/05/17 12:09:39;;;;;;;2.03;0.10;;;15.90;99.90;;;;;;5038147;28;20048;-81
2021/05/17 12:12:10;;;;;;;2.63;0.13;;;16.40;99.90;;;;;;5039030;28;20025;-80
2021/05/17 12:14:39;;;;;;;2.45;0.20;;;16.50;99.90;;;;;;5056008;28;20384;-83
2021/05/17 12:17:12;;;;;;;0.32;0.10;;;16.70;99.90;;;;;;5037988;28;20017;-79
2021/05/17 12:19:39;;;;;;;1.00;0.20;;;16.70;99.90;;;;;;5055973;28;20021;-80
2021/05/17 12:22:11;;;;;;;0.52;0.17;;;16.40;99.90;;;;;;5055788;28;20033;-80
2021/05/17 12:24:37;;;;;;;0.52;0.30;;;16.70;99.90;;;;;;5037985;28;20036;-80
2021/05/17 12:27:09;;;;;;;0.65;0.15;;;16.80;99.90;;;;;;5036796;28;20026;-80
2021/05/17 12:30:09;;;;;;;0.40;0.00;;;17.50;99.90;;;;;;5037703;28;20024;-79
2021/05/17 12:32:45;;;;;;;0.38;0.10;;;17.70;99.90;;;;;;5037799;28;20052;-81
2021/05/17 12:35:21;;;;;;;0.85;0.20;;;17.70;99.90;;;;;;5037750;28;20068;-80
2021/05/17 12:37:52;;;;;;;1.15;0.30;;;17.30;99.90;;;;;;5055549;28;20029;-81
2021/05/17 12:40:26;;;;;;;0.55;0.20;;;17.80;99.90;;;;;;5037690;28;20387;-81
2021/05/17 12:43:10;;;;;;;0.80;0.20;;;17.40;99.90;;;;;;5055692;28;20024;-82
2021/05/17 12:46:00;;;;;;;0.22;0.20;;;17.90;99.90;;;;;;5037777;28;20028;-81
2021/05/17 12:48:39;;;;;;;0.65;0.30;;;17.90;99.90;;;;;;5029477;28;20456;-82
2021/05/17 12:51:27;;;;;;;0.60;0.30;;;17.70;99.90;;;;;;5037479;28;20049;-81
2021/05/17 12:53:55;;;;;;;0.30;0.20;;;17.40;99.90;;;;;;5037510;28;20017;-82
2021/05/17 12:56:33;;;;;;;0.70;0.55;;;16.70;99.90;;;;;;5055290;28;20055;-81
2021/05/17 12:59:10;;;;;;;1.98;0.30;;;16.70;99.90;;;;;;5055256;28;20507;-82
2021/05/17 13:01:37;;;;;;;0.65;0.35;;;17.80;99.90;;;;;;5055151;28;20052;-81
2021/05/17 13:04:03;;;;;;;0.35;0.17;;;17.30;99.90;;;;;;5037365;28;20542;-82
2021/05/17 13:06:31;;;;;;;0.80;0.50;;;18.10;99.90;;;;;;5037231;28;20025;-80
2021/05/17 13:09:18;;;;;;;0.93;0.30;;;18.60;99.90;;;;;;5055068;28;20075;-80
2021/05/17 13:11:44;;;;;;;1.08;0.20;;;19.30;99.90;;;;;;5037034;28;20032;-81
2021/05/17 13:14:09;;;;;;;1.58;0.20;;;19.00;99.90;;;;;;5037104;28;20021;-80
2021/05/17 13:16:38;;;;;;;1.63;0.30;;;17.80;99.90;;;;;;5055127;28;20024;-80
2021/05/17 13:31:01;;;;;;;0.68;0.30;;;14.40;99.90;;;;;;5054976;28;20025;-82
2021/05/17 13:33:33;;;;;;;2.33;0.45;;;14.90;99.90;;;;;;5055078;28;20021;-82
2021/05/17 13:36:04;;;;;;;1.33;0.30;;;14.90;99.90;;;;;;5036735;28;20025;-80
2021/05/17 13:38:33;;;;;;;1.90;0.20;;;15.70;99.90;;;;;;5036594;28;20072;-80